Adams, Illinois
Current Conditions -  °F | °C
As of 9:54 PM on Wednesday 28 Jan 2015 (Local Time) from KUIN Reporting Station
Clear Clear  
Wind Chill: 40°   Ceiling: Unl
Heat Index: 46°   Visibility: 10mi
Dew Point: 33°   Wind: 14mph
Humidity: 61%   Direction: 180°S
Pressure: 29.73"   Gusts: NA
Location:  39.8875°N, 91.0352°W
Report Text: KUIN 290354Z AUTO 18012KT 10SM CLR 08/01 A2973 RMK AO2 SLP073 T00780006
Loading
Personal Weather Stations






























Interactive Weather Map New forecast layout! Learn more

10-Day Weather Forecast

Advertisements
Track Severe Weather on mobile